Terminal Aerodrome Forecast
Issued by NWS Goodland, KS

Home | Current Version | Previous Version | Text Only | Print | Product List | Glossary On
Versions: 1 2 3 4 5 6 7 8 9 10 11 12 13 14 15 16 17 18 19 20
559
FTUS43 KGLD 201409 AAA
TAFGLD
TAF AMD
KGLD 201409Z 2014/2112 15020G30KT P6SM OVC080
     FM201700 15020G30KT P6SM VCSH OVC040
      TEMPO 2017/2021 15025G37KT 2SM SHRA BKN025 OVC035
     FM202100 14020G30KT 5SM SHRA OVC030
     FM210300 12015KT 3SM -RA OVC005=

USA.gov is the U.S. government's official web portal to all federal, state and local government web resources and services.